Time;durP1;ratioP1;P1;durP2;ratioP2;P2;SDS_P1;SDS_P2;PMS_P1;PMS_P2;Temp;Humidity;BMP_temperature;BMP_pressure;BME280_temperature;BME280_humidity;BME280_pressure;Samples;Min_cycle;Max_cycle;Signal;HPM_P1;HPM_P2
2023/08/16 00:01:58;;;;;;;5.78;5.00;;;;;;;;;;7301184;19;140456;-77
2023/08/16 00:04:25;;;;;;;7.93;7.10;;;;;;;;;;7303177;19;140465;-75
2023/08/16 00:06:52;;;;;;;18.25;16.80;;;;;;;;;;7309146;19;141124;-75
2023/08/16 00:09:20;;;;;;;35.88;32.63;;;;;;;;;;7312506;19;141676;-76
2023/08/16 00:11:47;;;;;;;33.47;30.27;;;;;;;;;;7305113;19;140623;-76
2023/08/16 00:14:14;;;;;;;12.73;11.77;;;;;;;;;;7302357;19;140628;-75
2023/08/16 00:16:41;;;;;;;7.53;6.82;;;;;;;;;;7302385;19;141063;-76
2023/08/16 00:19:08;;;;;;;6.72;5.32;;;;;;;;;;7301767;19;141843;-76
2023/08/16 00:21:35;;;;;;;10.35;9.38;;;;;;;;;;7301436;19;140952;-77
2023/08/16 00:24:04;;;;;;;16.45;15.13;;;;;;;;;;7300129;19;140774;-76
2023/08/16 00:26:31;;;;;;;12.73;11.48;;;;;;;;;;7300829;19;140632;-77
2023/08/16 00:29:02;;;;;;;6.97;5.38;;;;;;;;;;7300004;19;142578;-77
2023/08/16 00:31:30;;;;;;;37.97;34.42;;;;;;;;;;7300281;19;140583;-76
2023/08/16 00:33:57;;;;;;;38.90;35.38;;;;;;;;;;7301226;19;140544;-77
2023/08/16 00:36:24;;;;;;;36.80;33.65;;;;;;;;;;7301159;19;141319;-76
2023/08/16 00:38:51;;;;;;;14.93;13.82;;;;;;;;;;7299981;19;142260;-77
2023/08/16 00:41:19;;;;;;;26.15;24.15;;;;;;;;;;7300770;19;140941;-76
2023/08/16 00:43:46;;;;;;;37.25;34.00;;;;;;;;;;7300742;19;140782;-77
2023/08/16 00:46:13;;;;;;;19.55;18.02;;;;;;;;;;7300924;19;141140;-77
2023/08/16 00:48:42;;;;;;;48.20;43.13;;;;;;;;;;7300933;19;143072;-76
2023/08/16 00:51:09;;;;;;;32.28;29.67;;;;;;;;;;7301135;19;140683;-77
2023/08/16 00:53:38;;;;;;;30.05;27.52;;;;;;;;;;7298506;19;140571;-77
2023/08/16 00:56:06;;;;;;;21.10;19.50;;;;;;;;;;7299973;19;140967;-76
2023/08/16 00:58:33;;;;;;;14.45;13.45;;;;;;;;;;7300666;19;142060;-77
2023/08/16 01:01:00;;;;;;;18.80;17.50;;;;;;;;;;7299243;19;140749;-76
2023/08/16 01:03:27;;;;;;;7.03;6.53;;;;;;;;;;7298627;19;140578;-77
2023/08/16 01:05:54;;;;;;;11.43;10.32;;;;;;;;;;7300110;19;141046;-77
2023/08/16 01:08:22;;;;;;;4.20;2.75;;;;;;;;;;7299725;19;141865;-76
2023/08/16 01:10:57;;;;;;;4.00;2.97;;;;;;;;;;7300043;19;140621;-76
2023/08/16 01:13:26;;;;;;;4.25;3.85;;;;;;;;;;7300141;19;140561;-76
2023/08/16 01:15:55;;;;;;;4.95;4.50;;;;;;;;;;7299854;19;141897;-76
2023/08/16 01:18:23;;;;;;;2.75;2.22;;;;;;;;;;7299682;19;142052;-77
2023/08/16 01:20:51;;;;;;;2.72;2.35;;;;;;;;;;7300160;19;140703;-77
2023/08/16 01:23:30;;;;;;;7.20;3.15;;;;;;;;;;7299399;19;140624;-76
2023/08/16 01:26:05;;;;;;;3.83;3.07;;;;;;;;;;7300188;19;140732;-77
2023/08/16 01:28:34;;;;;;;3.22;2.97;;;;;;;;;;7299812;19;142551;-77
2023/08/16 01:31:02;;;;;;;3.38;3.08;;;;;;;;;;7299127;19;140884;-76
2023/08/16 01:33:30;;;;;;;3.67;3.17;;;;;;;;;;7300407;19;140708;-77
2023/08/16 01:35:57;;;;;;;5.63;3.38;;;;;;;;;;7299593;19;142070;-76
2023/08/16 01:38:27;;;;;;;8.90;3.92;;;;;;;;;;7298477;19;142865;-76
2023/08/16 01:41:02;;;;;;;3.53;3.22;;;;;;;;;;7300602;19;140776;-77
2023/08/16 01:43:30;;;;;;;8.02;7.43;;;;;;;;;;7306880;19;140580;-77
2023/08/16 01:45:58;;;;;;;27.90;25.42;;;;;;;;;;7306241;19;141967;-77
2023/08/16 01:48:25;;;;;;;12.00;11.13;;;;;;;;;;7306535;19;141902;-76
2023/08/16 01:50:52;;;;;;;16.98;15.43;;;;;;;;;;7307019;19;140487;-77
2023/08/16 01:53:19;;;;;;;4.80;2.55;;;;;;;;;;7306050;19;140929;-76
2023/08/16 01:55:46;;;;;;;2.28;2.08;;;;;;;;;;7305896;19;141212;-77
2023/08/16 01:58:14;;;;;;;2.47;2.10;;;;;;;;;;7305766;19;142055;-77
2023/08/16 02:00:40;;;;;;;3.90;2.08;;;;;;;;;;7306194;19;140514;-77
2023/08/16 02:03:07;;;;;;;2.05;1.90;;;;;;;;;;7306398;19;140573;-77
2023/08/16 02:05:35;;;;;;;3.78;2.63;;;;;;;;;;7304763;19;140670;-76
2023/08/16 02:08:02;;;;;;;3.38;2.53;;;;;;;;;;7304439;19;141347;-77
2023/08/16 02:10:29;;;;;;;2.47;2.28;;;;;;;;;;7305360;19;140443;-77
2023/08/16 02:12:56;;;;;;;2.90;2.58;;;;;;;;;;7305614;19;140494;-77
2023/08/16 02:15:25;;;;;;;2.47;2.28;;;;;;;;;;7305337;19;141250;-77
2023/08/16 02:17:52;;;;;;;2.70;2.25;;;;;;;;;;7305698;19;142055;-77
2023/08/16 02:20:19;;;;;;;1.77;1.67;;;;;;;;;;7305707;19;140637;-76
2023/08/16 02:22:46;;;;;;;3.03;1.77;;;;;;;;;;7305513;19;140674;-76
2023/08/16 02:25:22;;;;;;;2.25;1.67;;;;;;;;;;7302166;19;141885;-76
2023/08/16 02:27:49;;;;;;;4.95;2.50;;;;;;;;;;7305000;19;141295;-77
2023/08/16 02:30:16;;;;;;;2.50;2.00;;;;;;;;;;7305643;19;140932;-76
2023/08/16 02:32:43;;;;;;;2.75;2.35;;;;;;;;;;7305043;19;140820;-77
2023/08/16 02:35:10;;;;;;;10.65;9.77;;;;;;;;;;7305063;19;141050;-77
2023/08/16 02:37:37;;;;;;;2.25;2.05;;;;;;;;;;7305011;19;142618;-76
2023/08/16 02:40:05;;;;;;;3.10;1.83;;;;;;;;;;7304344;19;140667;-77
2023/08/16 02:42:32;;;;;;;2.13;1.98;;;;;;;;;;7304948;19;140573;-77
2023/08/16 02:44:59;;;;;;;3.10;2.63;;;;;;;;;;7304878;19;141504;-76
2023/08/16 02:47:26;;;;;;;2.65;2.15;;;;;;;;;;7302942;19;142062;-76
2023/08/16 02:49:53;;;;;;;5.88;2.75;;;;;;;;;;7304704;19;140533;-76
2023/08/16 02:52:20;;;;;;;5.65;5.18;;;;;;;;;;7303774;19;140511;-77
2023/08/16 02:54:47;;;;;;;3.72;3.15;;;;;;;;;;7303531;19;141542;-77
2023/08/16 02:57:16;;;;;;;2.10;1.90;;;;;;;;;;7304363;19;141636;-76
2023/08/16 02:59:46;;;;;;;2.65;1.85;;;;;;;;;;7304279;19;140494;-77
2023/08/16 03:02:13;;;;;;;2.47;2.07;;;;;;;;;;7303805;19;140607;-76
2023/08/16 03:04:40;;;;;;;4.35;2.67;;;;;;;;;;7303861;19;140986;-76
2023/08/16 03:07:08;;;;;;;2.45;2.25;;;;;;;;;;7302425;19;141857;-76
2023/08/16 03:09:35;;;;;;;2.67;1.85;;;;;;;;;;7303343;19;140680;-76
2023/08/16 03:12:03;;;;;;;3.22;1.88;;;;;;;;;;7304213;19;140671;-77
2023/08/16 03:14:30;;;;;;;4.32;3.15;;;;;;;;;;7303946;19;142243;-77
2023/08/16 03:16:58;;;;;;;10.75;6.15;;;;;;;;;;7302670;19;140973;-77
2023/08/16 03:19:26;;;;;;;3.88;2.75;;;;;;;;;;7304400;19;140835;-76
2023/08/16 03:21:58;;;;;;;4.80;4.38;;;;;;;;;;7303613;19;140700;-77
2023/08/16 03:24:26;;;;;;;8.43;7.20;;;;;;;;;;7302912;19;141710;-77
2023/08/16 03:26:53;;;;;;;4.22;3.83;;;;;;;;;;7303331;19;141875;-76
2023/08/16 03:29:20;;;;;;;2.30;1.55;;;;;;;;;;7303454;19;140466;-77
2023/08/16 03:31:47;;;;;;;2.70;1.67;;;;;;;;;;7303657;19;140503;-76
2023/08/16 03:34:15;;;;;;;2.70;1.67;;;;;;;;;;7303335;19;140400;-76
2023/08/16 03:36:42;;;;;;;2.45;1.95;;;;;;;;;;7302929;19;142079;-77
2023/08/16 03:39:11;;;;;;;11.30;10.30;;;;;;;;;;7302668;19;140759;-76
2023/08/16 03:41:38;;;;;;;2.42;2.22;;;;;;;;;;7303120;19;140546;-76
2023/08/16 03:44:07;;;;;;;3.15;2.22;;;;;;;;;;7302196;19;141612;-76
2023/08/16 03:46:34;;;;;;;4.40;4.00;;;;;;;;;;7302778;19;142797;-77
2023/08/16 03:49:02;;;;;;;27.85;25.58;;;;;;;;;;7301622;19;140566;-77
2023/08/16 03:51:29;;;;;;;6.57;6.07;;;;;;;;;;7302190;19;140459;-77
2023/08/16 03:53:56;;;;;;;39.05;35.45;;;;;;;;;;7303010;19;140539;-76
2023/08/16 03:56:23;;;;;;;5.90;5.43;;;;;;;;;;7302287;19;142071;-77
2023/08/16 03:58:50;;;;;;;2.83;2.00;;;;;;;;;;7302465;19;140577;-76
2023/08/16 04:01:18;;;;;;;4.20;2.38;;;;;;;;;;7303036;19;140452;-76
2023/08/16 04:03:46;;;;;;;4.40;2.90;;;;;;;;;;7299092;19;141112;-76
2023/08/16 04:06:13;;;;;;;2.22;1.83;;;;;;;;;;7301587;19;142553;-77
2023/08/16 04:08:40;;;;;;;3.10;1.58;;;;;;;;;;7302961;19;140435;-76
2023/08/16 04:11:07;;;;;;;1.77;1.60;;;;;;;;;;7301540;19;141826;-76
2023/08/16 04:13:34;;;;;;;2.10;1.73;;;;;;;;;;7301856;19;141987;-76
2023/08/16 04:16:01;;;;;;;3.65;2.55;;;;;;;;;;7301733;19;141883;-76
2023/08/16 04:18:28;;;;;;;2.55;1.73;;;;;;;;;;7301458;19;140716;-76
2023/08/16 04:20:56;;;;;;;2.90;2.13;;;;;;;;;;7301887;19;140747;-76
2023/08/16 04:23:23;;;;;;;4.03;2.05;;;;;;;;;;7301262;19;141044;-76
2023/08/16 04:25:50;;;;;;;3.47;2.33;;;;;;;;;;7300590;19;142691;-76
2023/08/16 04:28:18;;;;;;;4.45;2.50;;;;;;;;;;7302264;19;140758;-76
2023/08/16 04:30:45;;;;;;;1.92;1.60;;;;;;;;;;7301742;19;140708;-76
2023/08/16 04:33:12;;;;;;;2.70;1.88;;;;;;;;;;7301218;19;141575;-76
2023/08/16 04:35:39;;;;;;;2.50;1.92;;;;;;;;;;7300854;19;142000;-76
2023/08/16 04:38:06;;;;;;;2.50;1.70;;;;;;;;;;7301597;19;140977;-76
2023/08/16 04:40:36;;;;;;;3.23;1.93;;;;;;;;;;7300417;19;140591;-76
2023/08/16 04:43:03;;;;;;;2.25;1.98;;;;;;;;;;7301224;19;141539;-76
2023/08/16 04:45:30;;;;;;;4.05;2.03;;;;;;;;;;7300892;19;142857;-76
2023/08/16 04:47:57;;;;;;;1.42;1.33;;;;;;;;;;7300890;19;140574;-76
2023/08/16 04:50:25;;;;;;;2.03;1.85;;;;;;;;;;7299712;19;140647;-74
2023/08/16 04:52:52;;;;;;;2.00;1.83;;;;;;;;;;7298918;19;141049;-76
2023/08/16 04:55:19;;;;;;;3.72;2.65;;;;;;;;;;7299715;19;142035;-76
2023/08/16 04:57:46;;;;;;;2.03;1.85;;;;;;;;;;7301149;19;140645;-77
2023/08/16 05:00:13;;;;;;;2.47;2.10;;;;;;;;;;7300450;19;140609;-76
2023/08/16 05:02:40;;;;;;;1.80;1.70;;;;;;;;;;7300628;19;141832;-76
2023/08/16 05:05:07;;;;;;;2.75;2.17;;;;;;;;;;7305274;19;142920;-75
2023/08/16 05:07:35;;;;;;;2.30;1.80;;;;;;;;;;7306161;19;140372;-75
2023/08/16 05:10:02;;;;;;;2.30;1.75;;;;;;;;;;7304433;19;140377;-76
2023/08/16 05:12:29;;;;;;;2.60;2.13;;;;;;;;;;7300366;19;140544;-76
2023/08/16 05:14:56;;;;;;;2.70;2.00;;;;;;;;;;7300811;19;141487;-77
2023/08/16 05:17:23;;;;;;;2.58;1.85;;;;;;;;;;7308069;19;140390;-76
2023/08/16 05:19:51;;;;;;;1.83;1.55;;;;;;;;;;7306461;19;140478;-76
2023/08/16 05:22:19;;;;;;;2.40;1.63;;;;;;;;;;7306883;19;141750;-76
2023/08/16 05:24:46;;;;;;;3.88;2.03;;;;;;;;;;7306612;19;142627;-75
2023/08/16 05:27:13;;;;;;;2.75;1.85;;;;;;;;;;7306596;19;141600;-75
2023/08/16 05:29:40;;;;;;;2.72;1.80;;;;;;;;;;7306499;19;140876;-75
2023/08/16 05:32:07;;;;;;;2.25;2.05;;;;;;;;;;7306682;19;140540;-75
2023/08/16 05:34:35;;;;;;;3.95;2.35;;;;;;;;;;7305742;19;142316;-77
2023/08/16 05:37:05;;;;;;;3.80;1.67;;;;;;;;;;7304740;19;140816;-74
2023/08/16 05:39:32;;;;;;;4.03;2.30;;;;;;;;;;7306619;19;140786;-75
2023/08/16 05:41:59;;;;;;;2.35;1.77;;;;;;;;;;7307178;19;141201;-75
2023/08/16 05:44:26;;;;;;;2.85;1.95;;;;;;;;;;7305775;19;142241;-75
2023/08/16 05:46:53;;;;;;;3.67;2.28;;;;;;;;;;7306869;19;140565;-75
2023/08/16 05:49:22;;;;;;;2.03;1.60;;;;;;;;;;7306013;19;140474;-75
2023/08/16 05:51:50;;;;;;;3.22;2.10;;;;;;;;;;7305837;19;140623;-75
2023/08/16 05:54:17;;;;;;;2.88;2.03;;;;;;;;;;7306547;19;142587;-75
2023/08/16 05:56:46;;;;;;;2.38;1.70;;;;;;;;;;7304306;19;140731;-75
2023/08/16 05:59:13;;;;;;;2.83;1.98;;;;;;;;;;7306454;19;140414;-75
2023/08/16 06:01:40;;;;;;;4.28;2.55;;;;;;;;;;7306515;19;140820;-75
2023/08/16 06:04:07;;;;;;;2.92;2.70;;;;;;;;;;7305669;19;141955;-75
2023/08/16 06:06:34;;;;;;;2.30;1.83;;;;;;;;;;7306321;19;140507;-77
2023/08/16 06:09:02;;;;;;;2.70;1.83;;;;;;;;;;7306161;19;140686;-76
2023/08/16 06:11:29;;;;;;;3.67;2.05;;;;;;;;;;7304798;19;142357;-76
2023/08/16 06:13:56;;;;;;;2.00;1.73;;;;;;;;;;7305649;19;142478;-76
2023/08/16 06:16:23;;;;;;;3.63;2.15;;;;;;;;;;7306074;19;140735;-76
2023/08/16 06:18:52;;;;;;;4.43;2.35;;;;;;;;;;7305508;19;140620;-76
2023/08/16 06:21:19;;;;;;;2.50;1.58;;;;;;;;;;7305269;19;141147;-76
2023/08/16 06:23:47;;;;;;;3.28;1.95;;;;;;;;;;7304790;19;142167;-76
2023/08/16 06:26:17;;;;;;;3.58;2.00;;;;;;;;;;7304148;19;140517;-77
2023/08/16 06:28:46;;;;;;;4.78;2.33;;;;;;;;;;7302702;19;140565;-76
2023/08/16 06:31:14;;;;;;;2.60;2.08;;;;;;;;;;7304793;19;140540;-76
2023/08/16 06:33:43;;;;;;;3.92;2.25;;;;;;;;;;7304841;19;141777;-76
2023/08/16 06:36:10;;;;;;;3.38;2.08;;;;;;;;;;7305275;19;140382;-76
2023/08/16 06:38:37;;;;;;;4.47;2.17;;;;;;;;;;7304726;19;140675;-76
2023/08/16 06:41:04;;;;;;;3.38;2.05;;;;;;;;;;7304125;19;141938;-76
2023/08/16 06:43:31;;;;;;;3.28;1.85;;;;;;;;;;7304850;19;141794;-76
2023/08/16 06:45:58;;;;;;;5.05;2.55;;;;;;;;;;7304293;19;140407;-76
2023/08/16 06:48:25;;;;;;;2.80;2.00;;;;;;;;;;7303512;19;140622;-77
2023/08/16 06:50:53;;;;;;;4.88;2.20;;;;;;;;;;7305115;19;140484;-76
2023/08/16 06:53:20;;;;;;;3.28;1.83;;;;;;;;;;7302961;19;142865;-76
2023/08/16 06:55:47;;;;;;;2.83;1.98;;;;;;;;;;7304388;19;141624;-76
2023/08/16 06:58:14;;;;;;;2.72;1.75;;;;;;;;;;7304217;19;140742;-76
2023/08/16 07:00:45;;;;;;;4.90;2.30;;;;;;;;;;7303692;19;141160;-76
2023/08/16 07:03:12;;;;;;;3.38;1.98;;;;;;;;;;7304236;19;142658;-77
2023/08/16 07:05:40;;;;;;;4.68;1.95;;;;;;;;;;7304056;19;140655;-76
2023/08/16 07:08:07;;;;;;;2.42;1.83;;;;;;;;;;7304039;19;140696;-76
2023/08/16 07:10:34;;;;;;;2.00;1.73;;;;;;;;;;7303085;19;140466;-76
2023/08/16 07:13:02;;;;;;;5.13;2.03;;;;;;;;;;7304006;19;140907;-76
2023/08/16 07:15:29;;;;;;;3.20;1.35;;;;;;;;;;7303753;19;140678;-76
2023/08/16 07:17:56;;;;;;;4.78;2.03;;;;;;;;;;7303864;19;140597;-76
2023/08/16 07:20:23;;;;;;;3.40;1.73;;;;;;;;;;7303323;19;141041;-76
2023/08/16 07:22:50;;;;;;;5.47;2.33;;;;;;;;;;7302471;19;141882;-76
2023/08/16 07:25:18;;;;;;;8.43;3.17;;;;;;;;;;7302714;19;140840;-75
2023/08/16 07:27:48;;;;;;;3.65;1.92;;;;;;;;;;7303290;19;140520;-75
2023/08/16 07:30:16;;;;;;;3.00;2.35;;;;;;;;;;7303225;19;141232;-74
2023/08/16 07:32:43;;;;;;;4.50;2.60;;;;;;;;;;7303112;19;142038;-75
2023/08/16 07:35:14;;;;;;;5.07;2.47;;;;;;;;;;7302623;19;140375;-75
2023/08/16 07:37:41;;;;;;;5.80;3.42;;;;;;;;;;7302035;19;140954;-75
2023/08/16 07:40:10;;;;;;;6.82;4.30;;;;;;;;;;7303090;19;140534;-75
2023/08/16 07:42:37;;;;;;;4.35;3.70;;;;;;;;;;7302594;19;140668;-74
2023/08/16 07:45:05;;;;;;;3.88;2.97;;;;;;;;;;7303081;19;141270;-74
2023/08/16 07:47:32;;;;;;;3.95;2.50;;;;;;;;;;7303167;19;140484;-74
2023/08/16 07:50:00;;;;;;;2.60;1.77;;;;;;;;;;7301267;19;141557;-75
2023/08/16 07:52:27;;;;;;;5.28;2.17;;;;;;;;;;7301580;19;141387;-75
2023/08/16 07:54:55;;;;;;;6.93;2.65;;;;;;;;;;7302617;19;140586;-75
2023/08/16 07:57:23;;;;;;;3.60;1.95;;;;;;;;;;7301686;19;140590;-75
2023/08/16 07:59:50;;;;;;;2.35;2.10;;;;;;;;;;7302318;19;141026;-75
2023/08/16 08:02:17;;;;;;;3.42;2.13;;;;;;;;;;7301677;19;142655;-74
2023/08/16 08:04:45;;;;;;;4.18;2.38;;;;;;;;;;7302083;19;140796;-75
2023/08/16 08:07:12;;;;;;;5.35;2.67;;;;;;;;;;7302411;19;140625;-75
2023/08/16 08:09:39;;;;;;;3.92;2.58;;;;;;;;;;7301223;19;141844;-75
2023/08/16 08:12:07;;;;;;;4.93;3.72;;;;;;;;;;7301472;19;142587;-76
2023/08/16 08:14:34;;;;;;;3.53;3.22;;;;;;;;;;7302253;19;140631;-77
2023/08/16 08:17:01;;;;;;;3.28;1.90;;;;;;;;;;7301652;19;140466;-75
2023/08/16 08:19:29;;;;;;;3.90;2.03;;;;;;;;;;7299953;19;141920;-75
2023/08/16 08:21:56;;;;;;;3.03;2.45;;;;;;;;;;7301005;19;141992;-75
2023/08/16 08:24:29;;;;;;;5.85;2.45;;;;;;;;;;7301087;19;140547;31
2023/08/16 08:26:57;;;;;;;2.92;1.92;;;;;;;;;;7301834;19;140378;-76
2023/08/16 08:29:27;;;;;;;4.82;2.25;;;;;;;;;;7301142;19;141280;-77
2023/08/16 08:31:55;;;;;;;2.90;1.92;;;;;;;;;;7301302;19;141247;-77
2023/08/16 08:34:24;;;;;;;3.28;2.28;;;;;;;;;;7301668;19;140650;-77
2023/08/16 08:36:51;;;;;;;2.58;2.35;;;;;;;;;;7301253;19;140557;-76
2023/08/16 08:39:19;;;;;;;3.83;3.25;;;;;;;;;;7300927;19;141574;-75
2023/08/16 08:41:47;;;;;;;5.80;5.38;;;;;;;;;;7300931;19;141121;-76
2023/08/16 08:44:16;;;;;;;3.13;1.85;;;;;;;;;;7301308;19;140603;-75
2023/08/16 08:46:43;;;;;;;4.63;2.67;;;;;;;;;;7301035;19;140562;-75
2023/08/16 08:49:10;;;;;;;2.85;2.00;;;;;;;;;;7300903;19;141035;-75
2023/08/16 08:51:39;;;;;;;2.35;2.03;;;;;;;;;;7299677;19;142376;-75
2023/08/16 08:54:06;;;;;;;2.90;2.15;;;;;;;;;;7300902;19;140675;-76
2023/08/16 08:56:33;;;;;;;4.43;2.45;;;;;;;;;;7299415;19;140677;-76
2023/08/16 08:59:04;;;;;;;2.70;2.45;;;;;;;;;;7299701;19;141602;-77
2023/08/16 09:01:37;;;;;;;2.72;2.45;;;;;;;;;;7300579;19;140714;-77
2023/08/16 09:04:08;;;;;;;3.55;2.15;;;;;;;;;;7298067;19;140858;-74
2023/08/16 09:06:38;;;;;;;3.40;2.45;;;;;;;;;;7299126;19;141479;-76
2023/08/16 09:09:05;;;;;;;3.28;2.35;;;;;;;;;;7300410;19;141042;-76
2023/08/16 09:11:32;;;;;;;3.42;2.70;;;;;;;;;;7300064;19;140802;-76
2023/08/16 09:14:02;;;;;;;4.22;2.55;;;;;;;;;;7300325;19;140641;-77
2023/08/16 09:16:29;;;;;;;3.03;2.73;;;;;;;;;;7300691;19;140660;-75
2023/08/16 09:18:56;;;;;;;2.70;2.47;;;;;;;;;;7300225;19;140961;-75
2023/08/16 09:21:24;;;;;;;5.22;4.88;;;;;;;;;;7299273;19;141951;-76
2023/08/16 09:23:55;;;;;;;4.63;4.22;;;;;;;;;;7298560;19;140664;-75
2023/08/16 09:26:29;;;;;;;6.53;6.03;;;;;;;;;;7299632;19;140571;-75
2023/08/16 09:28:57;;;;;;;9.98;9.18;;;;;;;;;;7299546;19;141684;-76
2023/08/16 09:31:24;;;;;;;3.35;2.83;;;;;;;;;;7299667;19;141861;-77
2023/08/16 09:33:55;;;;;;;5.97;2.50;;;;;;;;;;7299318;19;140669;-76
2023/08/16 09:36:22;;;;;;;;;;;;;;;;;;7300486;19;140844;-75
2023/08/16 09:38:49;;;;;;;4.53;3.45;;;;;;;;;;7299309;19;148696;-75
2023/08/16 09:41:18;;;;;;;7.00;6.05;;;;;;;;;;7298060;19;141936;-75
2023/08/16 09:43:45;;;;;;;5.35;2.22;;;;;;;;;;7299554;19;140481;-75
2023/08/16 09:46:12;;;;;;;2.53;2.10;;;;;;;;;;7299671;19;140549;-76
2023/08/16 09:48:39;;;;;;;2.85;2.33;;;;;;;;;;7299001;19;142038;-76
2023/08/16 09:51:27;;;;;;;3.58;2.70;;;;;;;;;;7299718;19;142874;-77
2023/08/16 09:53:57;;;;;;;5.13;4.47;;;;;;;;;;7299646;19;140825;-76
2023/08/16 09:56:25;;;;;;;6.40;5.90;;;;;;;;;;7298553;19;140659;-75
2023/08/16 09:58:55;;;;;;;3.80;2.55;;;;;;;;;;7298108;19;141389;-75
2023/08/16 10:01:22;;;;;;;3.50;2.38;;;;;;;;;;7301372;19;141797;-76
2023/08/16 10:03:55;;;;;;;3.85;2.50;;;;;;;;;;7303786;19;140604;-76
2023/08/16 10:06:26;;;;;;;7.28;6.28;;;;;;;;;;7305138;19;140819;-76
2023/08/16 10:08:56;;;;;;;7.45;3.22;;;;;;;;;;7311551;19;141090;-75
2023/08/16 10:11:23;;;;;;;2.95;2.42;;;;;;;;;;7309183;19;142847;-74
2023/08/16 10:13:51;;;;;;;3.72;2.05;;;;;;;;;;7310052;19;140865;-77
2023/08/16 10:16:21;;;;;;;3.38;2.72;;;;;;;;;;7306166;19;140651;-76
2023/08/16 10:18:50;;;;;;;7.32;6.75;;;;;;;;;;7306023;19;141953;-76
2023/08/16 10:21:18;;;;;;;5.38;4.28;;;;;;;;;;7306066;19;140816;-75
2023/08/16 10:23:47;;;;;;;3.65;2.22;;;;;;;;;;7304211;19;140580;-76
2023/08/16 10:26:15;;;;;;;6.88;3.03;;;;;;;;;;7304745;19;140545;-76
2023/08/16 10:28:44;;;;;;;4.60;4.05;;;;;;;;;;7305546;19;142024;-76
2023/08/16 10:31:12;;;;;;;5.13;4.40;;;;;;;;;;7305022;19;142040;-76
2023/08/16 10:33:44;;;;;;;3.30;2.65;;;;;;;;;;7305503;19;140497;-76
2023/08/16 10:36:11;;;;;;;6.30;4.57;;;;;;;;;;7305498;19;140621;-76
2023/08/16 10:38:41;;;;;;;5.30;3.47;;;;;;;;;;7304552;19;140773;-75
2023/08/16 10:41:12;;;;;;;6.73;4.37;;;;;;;;;;7304850;19;142601;-75
2023/08/16 10:44:07;;;;;;;6.63;4.68;;;;;;;;;;7304961;19;140504;-75
2023/08/16 10:46:35;;;;;;;5.85;5.28;;;;;;;;;;7303928;19;142289;-75
2023/08/16 10:49:03;;;;;;;12.23;11.18;;;;;;;;;;7304323;19;141519;-76
2023/08/16 10:51:30;;;;;;;11.38;10.45;;;;;;;;;;7304374;19;141878;-76
2023/08/16 10:53:57;;;;;;;10.55;9.73;;;;;;;;;;7305520;19;141214;-75
2023/08/16 10:56:35;;;;;;;7.85;7.05;;;;;;;;;;7303757;19;140698;-76
2023/08/16 10:59:05;;;;;;;9.48;8.68;;;;;;;;;;7303588;19;140592;-76
2023/08/16 11:01:32;;;;;;;14.00;12.88;;;;;;;;;;7306878;19;142340;-76
2023/08/16 11:04:00;;;;;;;4.97;4.53;;;;;;;;;;7305120;19;140536;-76
2023/08/16 11:06:27;;;;;;;5.22;4.80;;;;;;;;;;7304053;19;140565;-75
2023/08/16 11:08:55;;;;;;;4.47;4.03;;;;;;;;;;7304068;19;141004;-76
2023/08/16 11:11:22;;;;;;;5.03;4.22;;;;;;;;;;7303414;19;141835;-77
2023/08/16 11:13:49;;;;;;;5.22;4.72;;;;;;;;;;7302487;19;140798;-76
2023/08/16 11:16:16;;;;;;;5.68;5.10;;;;;;;;;;7303636;19;140559;-76
2023/08/16 11:18:44;;;;;;;5.93;5.47;;;;;;;;;;7303617;19;141145;-76
2023/08/16 11:21:13;;;;;;;7.45;6.53;;;;;;;;;;7302119;19;141918;-77
2023/08/16 11:23:42;;;;;;;6.10;5.53;;;;;;;;;;7303899;19;140849;-77
2023/08/16 11:26:10;;;;;;;22.00;20.08;;;;;;;;;;7302993;19;140942;-76
2023/08/16 11:28:38;;;;;;;10.57;9.63;;;;;;;;;;7302296;19;141054;-75
2023/08/16 11:31:06;;;;;;;9.13;8.45;;;;;;;;;;7302762;19;141861;-76
2023/08/16 11:33:40;;;;;;;20.17;18.58;;;;;;;;;;7302652;19;140658;-76
2023/08/16 11:36:09;;;;;;;17.40;16.15;;;;;;;;;;7303249;19;140601;-76
2023/08/16 11:38:38;;;;;;;33.85;31.02;;;;;;;;;;7303078;19;140937;-75
2023/08/16 11:41:05;;;;;;;39.03;35.40;;;;;;;;;;7302230;19;141876;-75
2023/08/16 11:43:33;;;;;;;60.17;53.78;;;;;;;;;;7303380;19;140490;-75
2023/08/16 11:46:01;;;;;;;71.75;60.85;;;;;;;;;;7303027;19;140668;-75
2023/08/16 11:48:32;;;;;;;77.57;64.63;;;;;;;;;;7301414;19;141006;-76
2023/08/16 11:51:02;;;;;;;58.53;51.40;;;;;;;;;;7301336;19;141608;-75
2023/08/16 11:53:36;;;;;;;36.45;33.33;;;;;;;;;;7302914;19;140681;-75
2023/08/16 11:56:09;;;;;;;13.48;12.32;;;;;;;;;;7302525;19;140699;-76
2023/08/16 11:58:47;;;;;;;13.00;11.90;;;;;;;;;;7301741;19;140864;-75
2023/08/16 12:01:15;;;;;;;12.32;11.13;;;;;;;;;;7302113;19;142448;-75
2023/08/16 12:03:42;;;;;;;6.38;5.75;;;;;;;;;;7301874;19;140735;-75
2023/08/16 12:06:11;;;;;;;15.23;14.00;;;;;;;;;;7302617;19;140578;-75
2023/08/16 12:08:48;;;;;;;6.13;5.55;;;;;;;;;;7299868;19;140862;-75
2023/08/16 12:11:28;;;;;;;5.22;4.57;;;;;;;;;;7301429;19;141974;-76
2023/08/16 12:13:55;;;;;;;5.68;4.65;;;;;;;;;;7301663;19;140388;-75
2023/08/16 12:16:23;;;;;;;9.35;8.50;;;;;;;;;;7301591;19;141478;-75
2023/08/16 12:18:52;;;;;;;11.27;10.07;;;;;;;;;;7300304;19;141693;-76
2023/08/16 12:21:20;;;;;;;6.50;4.43;;;;;;;;;;7301703;19;140766;-76
2023/08/16 12:23:47;;;;;;;4.00;3.53;;;;;;;;;;7301766;19;140637;-77
2023/08/16 12:26:14;;;;;;;3.97;3.65;;;;;;;;;;7299666;19;140435;-76
2023/08/16 12:28:41;;;;;;;3.75;3.42;;;;;;;;;;7301215;19;141743;-76
2023/08/16 12:31:10;;;;;;;6.22;5.70;;;;;;;;;;7301739;19;140617;-77
2023/08/16 12:33:37;;;;;;;3.47;3.17;;;;;;;;;;7301797;19;140498;-76
2023/08/16 12:36:04;;;;;;;6.63;6.00;;;;;;;;;;7302259;19;140737;-76
2023/08/16 12:38:31;;;;;;;5.32;4.88;;;;;;;;;;7301106;19;142172;-76
2023/08/16 12:40:58;;;;;;;10.70;9.88;;;;;;;;;;7301299;19;142727;-76
2023/08/16 12:43:25;;;;;;;6.32;3.25;;;;;;;;;;7300504;19;140585;-75
2023/08/16 12:45:52;;;;;;;3.30;2.88;;;;;;;;;;7301471;19;140586;-75
2023/08/16 12:48:23;;;;;;;;;;;;;;;;;;7301304;19;141447;-76
2023/08/16 12:50:50;;;;;;;5.28;4.80;;;;;;;;;;7303648;19;148407;-76
2023/08/16 12:53:30;;;;;;;5.32;4.85;;;;;;;;;;7301224;19;140491;-77
2023/08/16 12:56:03;;;;;;;6.10;5.60;;;;;;;;;;7301053;19;140680;-76
2023/08/16 12:58:30;;;;;;;6.93;6.32;;;;;;;;;;7298695;19;141230;-76
2023/08/16 13:01:00;;;;;;;5.80;5.27;;;;;;;;;;7301061;19;142122;-76
2023/08/16 13:03:30;;;;;;;7.13;6.60;;;;;;;;;;7300716;19;140597;-76
2023/08/16 13:06:00;;;;;;;16.80;15.43;;;;;;;;;;7298870;19;140702;-76
2023/08/16 13:08:30;;;;;;;5.43;4.93;;;;;;;;;;7300599;19;140537;-76
2023/08/16 13:10:57;;;;;;;6.00;5.40;;;;;;;;;;7299979;19;142220;-75
2023/08/16 13:13:36;;;;;;;8.10;7.40;;;;;;;;;;7299230;19;140772;-77
2023/08/16 13:16:05;;;;;;;5.13;4.72;;;;;;;;;;7300345;19;140682;-76
2023/08/16 13:18:36;;;;;;;10.32;9.45;;;;;;;;;;7298192;19;140690;-77
2023/08/16 13:21:08;;;;;;;13.45;12.35;;;;;;;;;;7300127;19;141717;-77
2023/08/16 13:23:38;;;;;;;5.65;5.13;;;;;;;;;;7300264;19;140436;-77
2023/08/16 13:26:21;;;;;;;7.45;6.88;;;;;;;;;;7299660;19;140550;-75
2023/08/16 13:29:03;;;;;;;9.18;8.23;;;;;;;;;;7301496;19;141102;-76
2023/08/16 13:31:33;;;;;;;12.40;11.40;;;;;;;;;;7299645;19;141850;-75
2023/08/16 13:34:20;;;;;;;11.38;10.35;;;;;;;;;;7299160;19;140634;-75
2023/08/16 13:36:50;;;;;;;14.97;13.80;;;;;;;;;;7302975;19;140608;-75
2023/08/16 13:39:21;;;;;;;32.50;29.80;;;;;;;;;;7308273;19;142335;-76
2023/08/16 13:41:51;;;;;;;18.83;17.30;;;;;;;;;;7306655;19;141609;-75
2023/08/16 13:44:29;;;;;;;18.90;17.40;;;;;;;;;;7306548;19;141006;-76
2023/08/16 13:46:59;;;;;;;30.40;27.98;;;;;;;;;;7306586;19;140965;-75
2023/08/16 13:49:26;;;;;;;37.53;34.40;;;;;;;;;;7306522;19;141295;-76
2023/08/16 13:51:53;;;;;;;23.17;21.40;;;;;;;;;;7306657;19;140827;-76
2023/08/16 13:54:20;;;;;;;35.13;32.22;;;;;;;;;;7306377;19;140458;-75
2023/08/16 13:56:47;;;;;;;20.25;18.67;;;;;;;;;;7305319;19;140765;-75
2023/08/16 13:59:15;;;;;;;22.73;21.02;;;;;;;;;;7305164;19;140762;-76
2023/08/16 14:01:43;;;;;;;38.55;35.17;;;;;;;;;;7305880;19;142651;-77
2023/08/16 14:04:10;;;;;;;53.60;48.20;;;;;;;;;;7308199;19;140438;-77
2023/08/16 14:06:37;;;;;;;92.85;72.43;;;;;;;;;;7305839;19;140446;-77
2023/08/16 14:09:05;;;;;;;46.88;42.33;;;;;;;;;;7304410;19;142582;-77
2023/08/16 14:11:32;;;;;;;50.47;45.47;;;;;;;;;;7305501;19;141982;-76
2023/08/16 14:13:59;;;;;;;48.40;43.80;;;;;;;;;;7303907;19;140723;-75
2023/08/16 14:16:26;;;;;;;33.53;30.67;;;;;;;;;;7304010;19;140859;-76
2023/08/16 14:18:56;;;;;;;35.60;32.47;;;;;;;;;;7305612;19;141895;-75
2023/08/16 14:21:23;;;;;;;28.77;26.40;;;;;;;;;;7305636;19;142177;-75
2023/08/16 14:23:50;;;;;;;46.92;42.50;;;;;;;;;;7304879;19;140495;-75
2023/08/16 14:26:21;;;;;;;33.88;31.13;;;;;;;;;;7305857;19;140749;-75
2023/08/16 14:28:48;;;;;;;44.40;40.25;;;;;;;;;;7303966;19;141195;-76
2023/08/16 14:31:15;;;;;;;37.70;34.30;;;;;;;;;;7305133;19;142937;-75
2023/08/16 14:33:42;;;;;;;45.53;41.33;;;;;;;;;;7305325;19;140409;-75